createdAt,value
2023-07-02T00:00:22.454Z,2.25
2023-07-02T00:02:50.411Z,2.75
2023-07-02T00:05:19.383Z,2.00
2023-07-02T00:07:47.396Z,3.00
2023-07-02T00:10:16.808Z,3.00
2023-07-02T00:12:45.591Z,2.00
2023-07-02T00:15:13.559Z,3.00
2023-07-02T00:17:41.855Z,2.00
2023-07-02T00:20:15.660Z,3.00
2023-07-02T00:22:46.808Z,2.00
2023-07-02T00:25:16.747Z,2.00
2023-07-02T00:27:45.031Z,1.75
2023-07-02T00:30:13.667Z,3.00
2023-07-02T00:32:41.803Z,3.00
2023-07-02T00:35:09.891Z,2.50
2023-07-02T00:37:38.247Z,4.00
2023-07-02T00:40:08.042Z,3.00
2023-07-02T00:42:37.422Z,2.00
2023-07-02T00:45:07.864Z,3.00
2023-07-02T00:47:36.742Z,1.50
2023-07-02T00:50:05.055Z,3.00
2023-07-02T00:52:32.974Z,2.50
2023-07-02T00:55:01.006Z,3.25
2023-07-02T00:57:31.064Z,2.00
2023-07-02T01:00:01.431Z,3.00
2023-07-02T01:02:30.887Z,2.75
2023-07-02T01:05:01.704Z,4.00
2023-07-02T01:07:30.876Z,2.75
2023-07-02T01:09:58.973Z,2.50
2023-07-02T01:12:26.985Z,3.00
2023-07-02T01:14:55.441Z,2.75
2023-07-02T01:17:25.196Z,3.00
2023-07-02T01:19:55.482Z,2.75
2023-07-02T01:22:24.523Z,3.00
2023-07-02T01:24:52.499Z,4.00
2023-07-02T01:27:20.801Z,2.75
2023-07-02T01:29:49.093Z,2.00
2023-07-02T01:32:17.071Z,4.00
2023-07-02T01:34:49.641Z,2.75
2023-07-02T01:37:20.096Z,3.00
2023-07-02T01:39:48.111Z,4.25
2023-07-02T01:42:17.057Z,2.50
2023-07-02T01:44:45.372Z,3.00
2023-07-02T01:47:13.624Z,3.00
2023-07-02T01:49:41.641Z,3.75
2023-07-02T01:52:09.617Z,2.00
2023-07-02T01:54:38.938Z,3.50
2023-07-02T01:57:07.158Z,3.00
2023-07-02T01:59:35.140Z,3.00
2023-07-02T02:02:03.370Z,3.75
2023-07-02T02:04:31.457Z,4.00
2023-07-02T02:06:59.890Z,3.50
2023-07-02T02:09:29.537Z,3.75
2023-07-02T02:11:58.944Z,4.00
2023-07-02T02:14:26.886Z,4.00
2023-07-02T02:16:55.237Z,4.00
2023-07-02T02:19:23.281Z,4.50
2023-07-02T02:21:51.229Z,3.25
2023-07-02T02:24:19.213Z,5.00
2023-07-02T02:26:47.454Z,5.00
2023-07-02T02:29:16.744Z,5.00
2023-07-02T02:31:45.354Z,4.00
2023-07-02T02:34:13.627Z,4.00
2023-07-02T02:36:41.883Z,5.75
2023-07-02T02:39:09.892Z,5.00
2023-07-02T02:41:37.885Z,5.25
2023-07-02T02:44:06.103Z,5.25
2023-07-02T02:46:35.832Z,5.25
2023-07-02T02:49:03.868Z,6.00
2023-07-02T02:51:31.832Z,5.00
2023-07-02T02:53:59.810Z,4.25
2023-07-02T02:56:27.756Z,5.50
2023-07-02T02:58:56.161Z,6.00
2023-07-02T03:01:24.139Z,5.25
2023-07-02T03:03:53.522Z,4.00
2023-07-02T03:06:21.568Z,5.75
2023-07-02T03:08:49.558Z,5.00
2023-07-02T03:11:17.598Z,5.75
2023-07-02T03:13:45.561Z,6.25
2023-07-02T03:16:13.517Z,4.75
2023-07-02T03:18:41.826Z,6.00
2023-07-02T03:21:11.165Z,6.00
2023-07-02T03:23:39.167Z,6.50
2023-07-02T03:26:07.121Z,6.00
2023-07-02T03:28:36.133Z,7.75
2023-07-02T03:31:04.662Z,5.75
2023-07-02T03:33:34.433Z,5.00
2023-07-02T03:36:02.470Z,6.50
2023-07-02T03:38:32.194Z,6.00
2023-07-02T03:41:00.165Z,5.25
2023-07-02T03:43:28.124Z,7.00
2023-07-02T03:45:56.100Z,9.00
2023-07-02T03:48:24.537Z,8.50
2023-07-02T03:50:52.523Z,9.00
2023-07-02T03:53:20.576Z,8.00
2023-07-02T03:55:50.028Z,7.50
2023-07-02T03:58:18.064Z,8.50
2023-07-02T04:00:46.383Z,7.75
2023-07-02T04:03:14.692Z,8.25
2023-07-02T04:05:42.685Z,9.00
2023-07-02T04:08:11.073Z,7.50
2023-07-02T04:10:39.049Z,8.00
2023-07-02T04:13:08.363Z,9.00
2023-07-02T04:15:36.297Z,8.50
2023-07-02T04:18:04.844Z,10.25
2023-07-02T04:20:32.816Z,7.25
2023-07-02T04:23:00.768Z,11.25
2023-07-02T04:25:31.165Z,7.50
2023-07-02T04:28:18.181Z,10.75
2023-07-02T04:30:47.508Z,9.00
2023-07-02T04:33:16.435Z,7.25
2023-07-02T04:35:44.885Z,8.50
2023-07-02T04:38:13.543Z,8.25
2023-07-02T04:40:42.894Z,11.50
2023-07-02T04:43:11.206Z,9.50
2023-07-02T04:45:40.737Z,8.75
2023-07-02T04:48:09.208Z,9.25
2023-07-02T04:50:37.282Z,8.50
2023-07-02T04:53:05.216Z,10.50
2023-07-02T04:55:33.163Z,9.25
2023-07-02T04:58:01.173Z,8.00
2023-07-02T05:00:29.185Z,13.25
2023-07-02T05:02:58.608Z,10.00
2023-07-02T05:05:26.663Z,11.00
2023-07-02T05:07:57.070Z,11.50
2023-07-02T05:10:25.044Z,13.25
2023-07-02T05:12:52.971Z,9.25
2023-07-02T05:15:20.934Z,12.50
2023-07-02T05:17:49.407Z,10.75
2023-07-02T05:20:18.993Z,10.00
2023-07-02T05:22:46.934Z,8.50
2023-07-02T05:25:14.866Z,10.75
2023-07-02T05:27:43.275Z,8.00
2023-07-02T05:30:12.093Z,10.50
2023-07-02T05:32:40.540Z,10.50
2023-07-02T05:35:09.139Z,10.25
2023-07-02T05:37:38.934Z,10.75
2023-07-02T05:40:08.323Z,11.75
2023-07-02T05:42:37.239Z,11.00
2023-07-02T05:45:07.460Z,11.00
2023-07-02T05:47:35.880Z,11.00
2023-07-02T05:50:03.917Z,12.75
2023-07-02T05:52:32.078Z,14.75
2023-07-02T05:55:01.437Z,13.25
2023-07-02T05:57:29.442Z,13.75
2023-07-02T05:59:58.757Z,14.00
2023-07-02T06:02:26.786Z,15.75
2023-07-02T06:04:54.831Z,14.00
2023-07-02T06:07:23.315Z,14.75
2023-07-02T06:09:51.285Z,15.00
2023-07-02T06:12:21.795Z,15.75
2023-07-02T06:14:49.819Z,14.00
2023-07-02T06:17:18.146Z,15.50
2023-07-02T06:19:46.850Z,15.25
2023-07-02T06:22:14.880Z,14.00
2023-07-02T06:24:42.849Z,14.00
2023-07-02T06:27:11.249Z,15.75
2023-07-02T06:29:40.612Z,15.00
2023-07-02T06:32:08.828Z,15.00
2023-07-02T06:34:37.436Z,14.25
2023-07-02T06:37:06.460Z,17.00
2023-07-02T06:39:34.369Z,15.75
2023-07-02T06:42:02.413Z,16.00
2023-07-02T06:44:30.442Z,14.00
2023-07-02T06:47:00.205Z,13.75
2023-07-02T06:49:28.151Z,16.50
2023-07-02T06:51:56.142Z,13.75
2023-07-02T06:54:24.077Z,16.00
2023-07-02T06:56:52.047Z,14.75
2023-07-02T06:59:22.015Z,15.75
2023-07-02T07:01:50.102Z,14.50
2023-07-02T07:04:19.645Z,14.75
2023-07-02T07:06:48.222Z,12.25
2023-07-02T07:09:16.172Z,13.00
2023-07-02T07:11:44.102Z,16.50
2023-07-02T07:14:12.129Z,15.00
2023-07-02T07:16:40.538Z,14.50
2023-07-02T07:19:08.608Z,18.75
2023-07-02T07:21:38.005Z,18.50
2023-07-02T07:24:06.714Z,14.25
2023-07-02T07:26:35.130Z,14.00
2023-07-02T07:29:03.163Z,13.25
2023-07-02T07:31:31.151Z,14.50
2023-07-02T07:33:59.138Z,15.25
2023-07-02T07:36:27.568Z,16.00
2023-07-02T07:38:59.675Z,15.75
2023-07-02T07:41:28.184Z,17.25
2023-07-02T07:43:56.177Z,16.25
2023-07-02T07:46:25.448Z,13.00
2023-07-02T07:48:53.528Z,15.00
2023-07-02T07:51:21.503Z,15.50
2023-07-02T07:53:49.674Z,13.50
2023-07-02T07:56:19.131Z,14.25
2023-07-02T07:58:47.076Z,14.75
2023-07-02T08:01:15.023Z,15.75
2023-07-02T08:03:43.043Z,14.50
2023-07-02T08:06:11.522Z,18.00
2023-07-02T08:08:39.576Z,18.00
2023-07-02T08:11:07.581Z,14.00
2023-07-02T08:13:36.945Z,14.50
2023-07-02T08:16:05.400Z,14.00
2023-07-02T08:18:33.852Z,15.50
2023-07-02T08:21:01.764Z,13.75
2023-07-02T08:23:29.843Z,12.75
2023-07-02T08:25:57.907Z,13.50
2023-07-02T08:28:26.348Z,14.50
2023-07-02T08:30:55.804Z,14.25
2023-07-02T08:33:23.973Z,18.00
2023-07-02T08:35:51.913Z,13.25
2023-07-02T08:38:20.416Z,18.75
2023-07-02T08:40:48.605Z,14.75
2023-07-02T08:43:16.748Z,12.75
2023-07-02T08:45:44.717Z,17.75
2023-07-02T08:48:14.905Z,14.25
2023-07-02T08:50:42.827Z,17.75
2023-07-02T08:53:10.817Z,14.75
2023-07-02T08:55:38.767Z,15.50
2023-07-02T08:58:06.726Z,14.75
2023-07-02T09:00:37.933Z,14.50
2023-07-02T09:03:17.654Z,15.50
2023-07-02T09:05:53.062Z,14.50
2023-07-02T09:08:27.506Z,14.50
2023-07-02T09:10:55.555Z,14.00
2023-07-02T09:13:23.528Z,12.25
2023-07-02T09:15:51.529Z,15.25
2023-07-02T09:18:22.893Z,16.25
2023-07-02T09:20:52.696Z,13.25
2023-07-02T09:23:20.685Z,13.75
2023-07-02T09:25:48.666Z,15.25
2023-07-02T09:28:18.710Z,14.75
2023-07-02T09:30:57.108Z,14.50
2023-07-02T09:33:27.172Z,16.25
2023-07-02T09:35:55.317Z,12.00
2023-07-02T09:38:23.771Z,15.00
2023-07-02T09:40:53.051Z,13.75
2023-07-02T09:43:21.358Z,17.75
2023-07-02T09:45:49.841Z,13.25
2023-07-02T09:48:19.063Z,14.75
2023-07-02T09:50:50.282Z,13.00
2023-07-02T09:53:18.538Z,15.25
2023-07-02T09:55:46.574Z,15.50
2023-07-02T09:58:14.504Z,15.25
2023-07-02T10:00:42.502Z,16.00
2023-07-02T10:03:10.489Z,10.75
2023-07-02T10:05:38.466Z,13.50
2023-07-02T10:11:14.164Z,15.00
2023-07-02T10:13:42.621Z,14.00
2023-07-02T10:16:10.877Z,15.50
2023-07-02T10:18:38.846Z,13.75
2023-07-02T10:21:17.034Z,14.00
2023-07-02T10:23:45.371Z,13.50
2023-07-02T10:26:16.480Z,14.50
2023-07-02T10:28:44.468Z,15.25
2023-07-02T10:31:22.089Z,13.75
2023-07-02T10:33:50.016Z,13.75
2023-07-02T10:36:21.854Z,14.00
2023-07-02T10:38:49.776Z,13.25
2023-07-02T10:41:27.519Z,15.75
2023-07-02T10:43:55.594Z,14.50
2023-07-02T10:46:24.132Z,15.50
2023-07-02T10:48:55.912Z,14.75
2023-07-02T10:51:24.914Z,15.00
2023-07-02T10:54:00.035Z,14.25
2023-07-02T10:56:29.623Z,15.00
2023-07-02T10:58:57.621Z,16.00
2023-07-02T11:01:27.065Z,15.75
2023-07-02T11:03:59.692Z,16.75
2023-07-02T11:06:28.138Z,15.00
2023-07-02T11:08:57.054Z,15.00
2023-07-02T11:11:25.291Z,14.50
2023-07-02T11:13:55.381Z,17.50
2023-07-02T11:16:26.803Z,14.75
2023-07-02T11:18:55.716Z,15.50
2023-07-02T11:21:23.696Z,13.25
2023-07-02T11:23:54.026Z,15.00
2023-07-02T11:26:22.290Z,16.75
2023-07-02T11:28:51.611Z,15.75
2023-07-02T11:31:31.115Z,20.50
2023-07-02T11:33:59.616Z,13.00
2023-07-02T11:36:27.838Z,14.00
2023-07-02T11:38:57.392Z,15.75
2023-07-02T11:41:25.315Z,12.50
2023-07-02T11:43:53.278Z,13.00
2023-07-02T11:46:21.550Z,13.25
2023-07-02T11:48:50.889Z,15.25
2023-07-02T11:51:18.871Z,15.00
2023-07-02T11:53:46.856Z,14.00
2023-07-02T11:56:15.315Z,12.50
2023-07-02T11:58:43.455Z,13.25
2023-07-02T12:01:11.617Z,12.00
2023-07-02T12:03:39.665Z,13.75
2023-07-02T12:06:09.328Z,14.25
2023-07-02T12:08:37.305Z,13.25
2023-07-02T12:11:05.337Z,14.50
2023-07-02T12:13:33.370Z,15.00
2023-07-02T12:16:01.391Z,13.00
2023-07-02T12:18:29.329Z,12.50
2023-07-02T12:20:57.238Z,15.50
2023-07-02T12:23:26.551Z,13.25
2023-07-02T12:25:54.536Z,14.25
2023-07-02T12:28:22.779Z,11.50
2023-07-02T12:30:51.255Z,10.75
2023-07-02T12:33:20.468Z,12.75
2023-07-02T12:35:48.862Z,12.50
2023-07-02T12:38:17.370Z,12.25
2023-07-02T12:40:46.648Z,13.25
2023-07-02T12:43:14.617Z,14.25
2023-07-02T12:45:42.619Z,13.00
2023-07-02T12:48:11.302Z,12.00
2023-07-02T12:50:39.825Z,13.00
2023-07-02T12:53:07.869Z,12.75
2023-07-02T12:55:35.853Z,13.25
2023-07-02T12:58:05.454Z,12.25
2023-07-02T13:00:33.795Z,10.75
2023-07-02T13:03:05.293Z,11.00
2023-07-02T13:05:34.168Z,10.00
2023-07-02T13:08:02.579Z,11.00
2023-07-02T13:10:31.233Z,13.00
2023-07-02T13:13:03.789Z,12.50
2023-07-02T13:15:39.648Z,14.00
2023-07-02T13:18:07.909Z,12.50
2023-07-02T13:20:35.926Z,11.75
2023-07-02T13:23:05.403Z,10.00
2023-07-02T13:25:33.491Z,9.75
2023-07-02T13:28:01.882Z,12.25
2023-07-02T13:30:31.925Z,11.75
2023-07-02T13:33:01.390Z,13.75
2023-07-02T13:35:29.386Z,11.00
2023-07-02T13:37:57.642Z,9.25
2023-07-02T13:40:25.784Z,12.75
2023-07-02T13:42:53.826Z,10.75
2023-07-02T13:45:22.048Z,10.75
2023-07-02T13:47:50.384Z,11.25
2023-07-02T13:50:19.763Z,10.50
2023-07-02T13:52:49.232Z,12.50
2023-07-02T13:55:17.561Z,10.75
2023-07-02T13:57:45.818Z,10.75
2023-07-02T14:00:15.770Z,8.50
2023-07-02T14:02:43.858Z,13.75
2023-07-02T14:05:12.139Z,10.00
2023-07-02T14:07:40.099Z,12.50
2023-07-02T14:10:09.614Z,11.25
2023-07-02T14:12:37.528Z,10.75
2023-07-02T14:15:06.981Z,11.50
2023-07-02T14:17:37.162Z,11.50
2023-07-02T14:20:05.704Z,12.25
2023-07-02T14:22:33.647Z,7.75
2023-07-02T14:25:01.613Z,10.00
2023-07-02T14:27:29.880Z,10.00
2023-07-02T14:29:58.360Z,11.25
2023-07-02T14:32:26.363Z,12.25
2023-07-02T14:34:55.719Z,10.25
2023-07-02T14:37:23.986Z,11.75
2023-07-02T14:40:05.881Z,10.00
2023-07-02T14:42:34.464Z,10.00
2023-07-02T14:45:02.463Z,12.25
2023-07-02T14:47:30.771Z,9.25
2023-07-02T14:50:00.098Z,9.25
2023-07-02T14:52:28.347Z,10.75
2023-07-02T14:54:56.306Z,11.25
2023-07-02T14:57:24.310Z,9.25
2023-07-02T14:59:52.597Z,9.75
2023-07-02T15:02:20.612Z,10.50
2023-07-02T15:04:48.805Z,12.00
2023-07-02T15:07:18.745Z,11.75
2023-07-02T15:09:46.748Z,10.00
2023-07-02T15:12:14.717Z,11.00
2023-07-02T15:14:42.714Z,10.00
2023-07-02T15:17:11.013Z,11.50
2023-07-02T15:19:39.039Z,11.75
2023-07-02T15:22:07.082Z,10.00
2023-07-02T15:24:37.189Z,11.00
2023-07-02T15:27:06.355Z,10.00
2023-07-02T15:29:34.321Z,9.25
2023-07-02T15:32:02.261Z,10.25
2023-07-02T15:34:30.225Z,10.00
2023-07-02T15:36:58.567Z,10.00
2023-07-02T15:39:33.352Z,10.75
2023-07-02T15:42:02.682Z,12.00
2023-07-02T15:44:30.658Z,9.50
2023-07-02T15:46:59.081Z,8.00
2023-07-02T15:49:27.896Z,12.00
2023-07-02T15:51:56.251Z,11.50
2023-07-02T15:54:24.189Z,10.50
2023-07-02T15:56:52.434Z,9.50
2023-07-02T15:59:21.761Z,9.00
2023-07-02T16:01:50.533Z,11.75
2023-07-02T16:04:18.701Z,9.00
2023-07-02T16:06:47.194Z,9.00
2023-07-02T16:09:15.175Z,9.75
2023-07-02T16:11:43.600Z,11.00
2023-07-02T16:14:12.373Z,10.75
2023-07-02T16:16:41.938Z,12.00
2023-07-02T16:19:10.268Z,9.00
2023-07-02T16:21:41.453Z,10.75
2023-07-02T16:24:11.022Z,9.50
2023-07-02T16:26:39.678Z,10.75
2023-07-02T16:29:07.622Z,11.00
2023-07-02T16:31:37.024Z,11.50
2023-07-02T16:34:09.087Z,8.00
2023-07-02T16:36:37.325Z,9.50
2023-07-02T16:39:05.411Z,11.00
2023-07-02T16:41:36.950Z,11.25
2023-07-02T16:44:07.663Z,9.00
2023-07-02T16:46:35.959Z,10.75
2023-07-02T16:49:03.956Z,8.50
2023-07-02T16:51:33.417Z,12.00
2023-07-02T16:54:01.357Z,8.75
2023-07-02T16:56:29.788Z,10.00
2023-07-02T16:58:57.925Z,9.25
2023-07-02T17:01:25.954Z,11.00
2023-07-02T17:03:53.979Z,11.50
2023-07-02T17:06:22.701Z,10.25
2023-07-02T17:09:08.551Z,11.00
2023-07-02T17:11:36.690Z,9.75
2023-07-02T17:14:04.661Z,13.00
2023-07-02T17:16:32.947Z,10.75
2023-07-02T17:19:01.210Z,11.00
2023-07-02T17:21:29.433Z,10.25
2023-07-02T17:23:58.830Z,11.00
2023-07-02T17:26:27.153Z,10.25
2023-07-02T17:28:55.885Z,11.50
2023-07-02T17:31:24.582Z,12.25
2023-07-02T17:33:53.827Z,11.00
2023-07-02T17:36:22.356Z,10.50
2023-07-02T17:38:50.355Z,11.00
2023-07-02T17:41:19.668Z,10.00
2023-07-02T17:43:47.630Z,11.00
2023-07-02T17:46:15.965Z,11.50
2023-07-02T17:48:44.000Z,9.25
2023-07-02T17:51:11.947Z,11.25
2023-07-02T17:53:39.949Z,13.00
2023-07-02T17:56:08.189Z,9.75
2023-07-02T17:58:38.091Z,11.50
2023-07-02T18:01:06.085Z,11.00
2023-07-02T18:03:34.560Z,10.00
2023-07-02T18:06:02.828Z,14.75
2023-07-02T18:08:31.015Z,11.00
2023-07-02T18:10:59.213Z,9.75
2023-07-02T18:13:27.337Z,13.00
2023-07-02T18:15:56.679Z,10.75
2023-07-02T18:18:24.802Z,11.75
2023-07-02T18:20:52.712Z,9.75
2023-07-02T18:23:20.842Z,12.00
2023-07-02T18:25:49.092Z,12.00
2023-07-02T18:28:17.566Z,10.00
2023-07-02T18:30:45.595Z,9.50
2023-07-02T18:33:15.235Z,11.00
2023-07-02T18:35:43.643Z,11.25
2023-07-02T18:38:11.867Z,11.25
2023-07-02T18:40:39.789Z,11.50
2023-07-02T18:43:07.753Z,12.75
2023-07-02T18:45:35.721Z,10.75
2023-07-02T18:48:04.167Z,10.75
2023-07-02T18:50:33.586Z,11.50
2023-07-02T18:53:02.198Z,10.00
2023-07-02T18:55:30.181Z,12.75
2023-07-02T18:57:58.616Z,10.00
2023-07-02T19:00:26.573Z,10.00
2023-07-02T19:02:54.638Z,12.50
2023-07-02T19:05:25.155Z,10.00
2023-07-02T19:07:55.129Z,9.25
2023-07-02T19:10:23.367Z,11.50
2023-07-02T19:12:51.311Z,10.25
2023-07-02T19:15:19.629Z,10.75
2023-07-02T19:17:49.430Z,10.25
2023-07-02T19:20:19.992Z,12.00
2023-07-02T19:22:48.147Z,11.00
2023-07-02T19:25:17.723Z,10.50
2023-07-02T19:27:46.219Z,10.50
2023-07-02T19:30:14.534Z,10.25
2023-07-02T19:32:43.045Z,12.50
2023-07-02T19:35:12.016Z,11.00
2023-07-02T19:37:40.230Z,10.00
2023-07-02T19:40:09.246Z,10.25
2023-07-02T19:42:38.616Z,12.50
2023-07-02T19:45:10.223Z,12.75
2023-07-02T19:47:38.585Z,10.75
2023-07-02T19:50:07.562Z,14.75
2023-07-02T19:52:35.526Z,11.00
2023-07-02T19:55:04.898Z,9.00
2023-07-02T19:57:33.172Z,11.50
2023-07-02T20:00:08.960Z,10.25
2023-07-02T20:02:37.814Z,11.00
2023-07-02T20:05:07.090Z,13.00
2023-07-02T20:07:35.640Z,10.25
2023-07-02T20:10:04.707Z,10.25
2023-07-02T20:12:32.753Z,10.75
2023-07-02T20:15:02.791Z,13.50
2023-07-02T20:17:31.253Z,11.00
2023-07-02T20:20:00.084Z,8.00
2023-07-02T20:22:28.391Z,9.25
2023-07-02T20:25:03.906Z,10.25
2023-07-02T20:27:40.963Z,11.50
2023-07-02T20:30:12.639Z,12.50
2023-07-02T20:32:40.681Z,11.50
2023-07-02T20:35:09.793Z,11.25
2023-07-02T20:37:37.999Z,10.25
2023-07-02T20:40:11.485Z,9.75
2023-07-02T20:42:40.268Z,13.50
2023-07-02T20:45:13.566Z,14.75
2023-07-02T20:47:42.662Z,10.00
2023-07-02T20:50:12.046Z,10.75
2023-07-02T20:52:40.038Z,9.25
2023-07-02T20:55:08.716Z,12.25
2023-07-02T20:57:36.997Z,11.50
2023-07-02T21:00:10.254Z,10.50
2023-07-02T21:02:39.690Z,11.00
2023-07-02T21:05:09.015Z,10.50
2023-07-02T21:07:37.728Z,11.50
2023-07-02T21:10:06.869Z,10.50
2023-07-02T21:12:34.869Z,11.00
2023-07-02T21:15:03.847Z,10.75
2023-07-02T21:17:32.620Z,12.00
2023-07-02T21:20:02.330Z,11.00
2023-07-02T21:22:30.355Z,10.50
2023-07-02T21:24:58.335Z,10.00
2023-07-02T21:27:26.616Z,10.00
2023-07-02T21:29:55.682Z,10.75
2023-07-02T21:32:23.898Z,11.00
2023-07-02T21:34:54.031Z,11.50
2023-07-02T21:37:24.091Z,11.50
2023-07-02T21:39:52.532Z,13.50
2023-07-02T21:42:20.780Z,13.50
2023-07-02T21:44:48.770Z,12.00
2023-07-02T21:47:17.021Z,15.75
2023-07-02T21:49:45.053Z,16.75
2023-07-02T21:52:13.473Z,13.75
2023-07-02T21:54:42.958Z,14.75
2023-07-02T21:57:11.168Z,11.50
2023-07-02T21:59:39.454Z,13.00
2023-07-02T22:02:07.486Z,13.25
2023-07-02T22:04:35.836Z,15.25
2023-07-02T22:07:04.252Z,13.50
2023-07-02T22:09:33.204Z,11.25
2023-07-02T22:12:02.575Z,12.75
2023-07-02T22:14:30.668Z,12.50
2023-07-02T22:17:08.364Z,12.75
2023-07-02T22:19:36.542Z,10.75
2023-07-02T22:22:04.619Z,11.00
2023-07-02T22:24:32.643Z,12.00
2023-07-02T22:27:02.091Z,12.00
2023-07-02T22:29:30.237Z,12.00
2023-07-02T22:31:58.224Z,11.50
2023-07-02T22:34:26.278Z,10.75
2023-07-02T22:36:54.597Z,8.75
2023-07-02T22:39:22.516Z,12.25
2023-07-02T22:41:50.514Z,10.00
2023-07-02T22:44:20.035Z,12.00
2023-07-02T22:46:48.210Z,12.00
2023-07-02T22:49:16.186Z,9.25
2023-07-02T22:51:44.162Z,11.00
2023-07-02T22:54:12.116Z,8.00
2023-07-02T22:56:40.372Z,8.75
2023-07-02T22:59:08.318Z,9.75
2023-07-02T23:01:37.637Z,8.25
2023-07-02T23:04:06.118Z,9.00
2023-07-02T23:06:34.426Z,7.75
2023-07-02T23:09:02.414Z,10.00
2023-07-02T23:11:30.390Z,9.00
2023-07-02T23:13:58.299Z,8.25
2023-07-02T23:16:26.558Z,9.00
2023-07-02T23:18:56.076Z,6.75
2023-07-02T23:21:24.096Z,9.00
2023-07-02T23:23:52.058Z,9.75
2023-07-02T23:26:20.508Z,7.75
2023-07-02T23:28:54.151Z,7.00
2023-07-02T23:31:22.458Z,8.25
2023-07-02T23:33:50.430Z,8.00
2023-07-02T23:36:22.396Z,8.75
2023-07-02T23:38:50.933Z,6.75
2023-07-02T23:41:18.913Z,7.50
2023-07-02T23:43:47.072Z,8.00
2023-07-02T23:46:15.345Z,6.25
2023-07-02T23:48:43.316Z,7.00
2023-07-02T23:51:11.439Z,7.25
2023-07-02T23:53:40.778Z,7.75
2023-07-02T23:56:08.966Z,8.50
2023-07-02T23:58:36.932Z,6.75
